sensor_id;sensor_type;location;lat;lon;timestamp;P1;durP1;ratioP1;P2;durP2;ratioP2
72557;SDS011;60583;50.094;8.748;2023-07-31T00:01:42;3.88;;;1.50;;
72557;SDS011;60583;50.094;8.748;2023-07-31T00:04:07;7.07;;;1.63;;
72557;SDS011;60583;50.094;8.748;2023-07-31T00:06:32;7.32;;;1.80;;
72557;SDS011;60583;50.094;8.748;2023-07-31T00:08:58;4.72;;;1.50;;
72557;SDS011;60583;50.094;8.748;2023-07-31T00:11:23;3.80;;;1.65;;
72557;SDS011;60583;50.094;8.748;2023-07-31T00:13:49;5.00;;;1.67;;
72557;SDS011;60583;50.094;8.748;2023-07-31T00:16:14;5.43;;;1.77;;
72557;SDS011;60583;50.094;8.748;2023-07-31T00:18:39;5.53;;;1.70;;
72557;SDS011;60583;50.094;8.748;2023-07-31T00:21:05;5.38;;;1.92;;
72557;SDS011;60583;50.094;8.748;2023-07-31T00:23:30;4.32;;;1.80;;
72557;SDS011;60583;50.094;8.748;2023-07-31T00:25:55;5.72;;;1.55;;
72557;SDS011;60583;50.094;8.748;2023-07-31T00:28:21;4.30;;;1.67;;
72557;SDS011;60583;50.094;8.748;2023-07-31T00:30:46;5.13;;;1.80;;
72557;SDS011;60583;50.094;8.748;2023-07-31T00:33:11;3.80;;;1.55;;
72557;SDS011;60583;50.094;8.748;2023-07-31T00:35:37;4.70;;;1.45;;
72557;SDS011;60583;50.094;8.748;2023-07-31T00:38:02;4.70;;;1.75;;
72557;SDS011;60583;50.094;8.748;2023-07-31T00:40:27;5.60;;;1.60;;
72557;SDS011;60583;50.094;8.748;2023-07-31T00:42:53;4.55;;;1.80;;
72557;SDS011;60583;50.094;8.748;2023-07-31T00:45:18;7.55;;;1.77;;
72557;SDS011;60583;50.094;8.748;2023-07-31T00:47:44;4.10;;;1.70;;
72557;SDS011;60583;50.094;8.748;2023-07-31T00:50:09;5.20;;;1.92;;
72557;SDS011;60583;50.094;8.748;2023-07-31T00:52:35;4.78;;;1.90;;
72557;SDS011;60583;50.094;8.748;2023-07-31T00:55:01;3.85;;;1.73;;
72557;SDS011;60583;50.094;8.748;2023-07-31T00:57:27;3.67;;;1.60;;
72557;SDS011;60583;50.094;8.748;2023-07-31T00:59:52;4.70;;;1.60;;
72557;SDS011;60583;50.094;8.748;2023-07-31T01:02:17;4.40;;;1.73;;
72557;SDS011;60583;50.094;8.748;2023-07-31T01:04:43;5.40;;;1.90;;
72557;SDS011;60583;50.094;8.748;2023-07-31T01:07:31;5.68;;;1.90;;
72557;SDS011;60583;50.094;8.748;2023-07-31T01:10:16;5.38;;;1.83;;
72557;SDS011;60583;50.094;8.748;2023-07-31T01:12:45;5.25;;;1.80;;
72557;SDS011;60583;50.094;8.748;2023-07-31T01:15:12;4.03;;;1.83;;
72557;SDS011;60583;50.094;8.748;2023-07-31T01:17:41;5.00;;;1.58;;
72557;SDS011;60583;50.094;8.748;2023-07-31T01:20:11;5.18;;;1.67;;
72557;SDS011;60583;50.094;8.748;2023-07-31T01:28:19;5.45;;;1.90;;
72557;SDS011;60583;50.094;8.748;2023-07-31T01:30:49;4.30;;;1.70;;
72557;SDS011;60583;50.094;8.748;2023-07-31T01:33:28;5.55;;;1.80;;
72557;SDS011;60583;50.094;8.748;2023-07-31T01:35:54;5.72;;;1.83;;
72557;SDS011;60583;50.094;8.748;2023-07-31T01:38:22;6.85;;;1.70;;
72557;SDS011;60583;50.094;8.748;2023-07-31T01:40:51;4.88;;;1.63;;
72557;SDS011;60583;50.094;8.748;2023-07-31T01:43:17;4.18;;;1.90;;
72557;SDS011;60583;50.094;8.748;2023-07-31T01:45:43;6.30;;;1.90;;
72557;SDS011;60583;50.094;8.748;2023-07-31T01:48:08;5.00;;;2.10;;
72557;SDS011;60583;50.094;8.748;2023-07-31T01:50:34;5.75;;;1.70;;
72557;SDS011;60583;50.094;8.748;2023-07-31T01:52:59;4.50;;;1.88;;
72557;SDS011;60583;50.094;8.748;2023-07-31T01:55:24;4.72;;;1.60;;
72557;SDS011;60583;50.094;8.748;2023-07-31T01:57:50;4.82;;;1.50;;
72557;SDS011;60583;50.094;8.748;2023-07-31T02:00:17;5.00;;;1.88;;
72557;SDS011;60583;50.094;8.748;2023-07-31T02:02:43;5.25;;;1.60;;
72557;SDS011;60583;50.094;8.748;2023-07-31T02:05:08;4.18;;;1.70;;
72557;SDS011;60583;50.094;8.748;2023-07-31T02:07:36;5.25;;;1.90;;
72557;SDS011;60583;50.094;8.748;2023-07-31T02:10:02;6.05;;;2.42;;
72557;SDS011;60583;50.094;8.748;2023-07-31T02:12:27;4.68;;;1.65;;
72557;SDS011;60583;50.094;8.748;2023-07-31T02:14:56;5.40;;;1.80;;
72557;SDS011;60583;50.094;8.748;2023-07-31T02:17:21;6.47;;;2.20;;
72557;SDS011;60583;50.094;8.748;2023-07-31T02:19:46;5.32;;;2.17;;
72557;SDS011;60583;50.094;8.748;2023-07-31T02:22:12;4.25;;;2.05;;
72557;SDS011;60583;50.094;8.748;2023-07-31T02:24:38;5.70;;;2.33;;
72557;SDS011;60583;50.094;8.748;2023-07-31T02:27:03;5.20;;;1.60;;
72557;SDS011;60583;50.094;8.748;2023-07-31T02:29:29;6.70;;;2.10;;
72557;SDS011;60583;50.094;8.748;2023-07-31T02:31:54;5.50;;;2.00;;
72557;SDS011;60583;50.094;8.748;2023-07-31T02:34:23;4.85;;;1.90;;
72557;SDS011;60583;50.094;8.748;2023-07-31T02:36:49;4.25;;;1.80;;
72557;SDS011;60583;50.094;8.748;2023-07-31T02:39:14;5.65;;;1.90;;
72557;SDS011;60583;50.094;8.748;2023-07-31T02:41:40;7.55;;;2.10;;
72557;SDS011;60583;50.094;8.748;2023-07-31T02:44:05;5.80;;;1.83;;
72557;SDS011;60583;50.094;8.748;2023-07-31T02:46:30;5.95;;;1.95;;
72557;SDS011;60583;50.094;8.748;2023-07-31T02:48:56;5.07;;;2.10;;
72557;SDS011;60583;50.094;8.748;2023-07-31T02:51:22;5.20;;;1.77;;
72557;SDS011;60583;50.094;8.748;2023-07-31T02:53:47;4.85;;;2.00;;
72557;SDS011;60583;50.094;8.748;2023-07-31T02:56:13;4.78;;;1.98;;
72557;SDS011;60583;50.094;8.748;2023-07-31T02:58:38;6.85;;;2.35;;
72557;SDS011;60583;50.094;8.748;2023-07-31T03:01:04;6.05;;;2.08;;
72557;SDS011;60583;50.094;8.748;2023-07-31T03:03:29;4.90;;;2.33;;
72557;SDS011;60583;50.094;8.748;2023-07-31T03:05:55;5.32;;;2.33;;
72557;SDS011;60583;50.094;8.748;2023-07-31T03:08:20;5.32;;;2.00;;
72557;SDS011;60583;50.094;8.748;2023-07-31T03:10:46;6.47;;;2.03;;
72557;SDS011;60583;50.094;8.748;2023-07-31T03:13:11;7.07;;;2.60;;
72557;SDS011;60583;50.094;8.748;2023-07-31T03:15:36;5.85;;;2.30;;
72557;SDS011;60583;50.094;8.748;2023-07-31T03:18:02;5.75;;;1.98;;
72557;SDS011;60583;50.094;8.748;2023-07-31T03:20:27;5.68;;;1.92;;
72557;SDS011;60583;50.094;8.748;2023-07-31T03:22:53;4.55;;;1.88;;
72557;SDS011;60583;50.094;8.748;2023-07-31T03:25:18;6.80;;;2.20;;
72557;SDS011;60583;50.094;8.748;2023-07-31T03:27:43;6.53;;;1.98;;
72557;SDS011;60583;50.094;8.748;2023-07-31T03:30:09;3.75;;;1.77;;
72557;SDS011;60583;50.094;8.748;2023-07-31T03:32:35;5.88;;;1.73;;
72557;SDS011;60583;50.094;8.748;2023-07-31T03:35:00;5.65;;;1.92;;
72557;SDS011;60583;50.094;8.748;2023-07-31T03:37:25;11.68;;;2.50;;
72557;SDS011;60583;50.094;8.748;2023-07-31T03:39:51;5.28;;;2.00;;
72557;SDS011;60583;50.094;8.748;2023-07-31T03:42:17;5.28;;;2.53;;
72557;SDS011;60583;50.094;8.748;2023-07-31T03:44:43;6.47;;;1.90;;
72557;SDS011;60583;50.094;8.748;2023-07-31T03:47:08;6.47;;;2.08;;
72557;SDS011;60583;50.094;8.748;2023-07-31T03:49:33;6.47;;;2.42;;
72557;SDS011;60583;50.094;8.748;2023-07-31T03:51:59;4.28;;;2.40;;
72557;SDS011;60583;50.094;8.748;2023-07-31T03:54:24;5.00;;;1.75;;
72557;SDS011;60583;50.094;8.748;2023-07-31T03:56:49;6.45;;;1.88;;
72557;SDS011;60583;50.094;8.748;2023-07-31T03:59:15;6.45;;;2.17;;
72557;SDS011;60583;50.094;8.748;2023-07-31T04:01:40;5.55;;;1.98;;
72557;SDS011;60583;50.094;8.748;2023-07-31T04:04:05;5.05;;;2.40;;
72557;SDS011;60583;50.094;8.748;2023-07-31T04:06:31;5.80;;;2.00;;
72557;SDS011;60583;50.094;8.748;2023-07-31T04:08:56;4.70;;;2.20;;
72557;SDS011;60583;50.094;8.748;2023-07-31T04:11:22;7.03;;;2.28;;
72557;SDS011;60583;50.094;8.748;2023-07-31T04:13:47;4.75;;;2.30;;
72557;SDS011;60583;50.094;8.748;2023-07-31T04:16:13;6.13;;;2.25;;
72557;SDS011;60583;50.094;8.748;2023-07-31T04:18:38;6.82;;;2.97;;
72557;SDS011;60583;50.094;8.748;2023-07-31T04:21:03;6.95;;;2.70;;
72557;SDS011;60583;50.094;8.748;2023-07-31T04:23:29;7.15;;;2.15;;
72557;SDS011;60583;50.094;8.748;2023-07-31T04:25:54;6.60;;;2.70;;
72557;SDS011;60583;50.094;8.748;2023-07-31T04:28:20;7.25;;;2.33;;
72557;SDS011;60583;50.094;8.748;2023-07-31T04:30:46;6.60;;;2.08;;
72557;SDS011;60583;50.094;8.748;2023-07-31T04:33:12;7.07;;;2.35;;
72557;SDS011;60583;50.094;8.748;2023-07-31T04:35:37;7.22;;;2.28;;
72557;SDS011;60583;50.094;8.748;2023-07-31T04:38:03;7.57;;;2.28;;
72557;SDS011;60583;50.094;8.748;2023-07-31T04:40:28;5.55;;;2.15;;
72557;SDS011;60583;50.094;8.748;2023-07-31T04:42:53;6.22;;;2.30;;
72557;SDS011;60583;50.094;8.748;2023-07-31T04:45:19;4.72;;;1.85;;
72557;SDS011;60583;50.094;8.748;2023-07-31T04:47:44;9.20;;;2.40;;
72557;SDS011;60583;50.094;8.748;2023-07-31T04:50:10;5.95;;;2.38;;
72557;SDS011;60583;50.094;8.748;2023-07-31T04:52:35;5.97;;;2.35;;
72557;SDS011;60583;50.094;8.748;2023-07-31T04:55:01;7.60;;;2.72;;
72557;SDS011;60583;50.094;8.748;2023-07-31T04:57:26;5.50;;;1.98;;
72557;SDS011;60583;50.094;8.748;2023-07-31T04:59:51;6.63;;;2.30;;
72557;SDS011;60583;50.094;8.748;2023-07-31T05:02:18;6.43;;;2.35;;
72557;SDS011;60583;50.094;8.748;2023-07-31T05:04:44;7.82;;;2.47;;
72557;SDS011;60583;50.094;8.748;2023-07-31T05:07:09;5.75;;;1.83;;
72557;SDS011;60583;50.094;8.748;2023-07-31T05:09:34;5.13;;;1.90;;
72557;SDS011;60583;50.094;8.748;2023-07-31T05:12:00;5.75;;;2.05;;
72557;SDS011;60583;50.094;8.748;2023-07-31T05:14:25;5.30;;;2.35;;
72557;SDS011;60583;50.094;8.748;2023-07-31T05:16:51;7.18;;;2.20;;
72557;SDS011;60583;50.094;8.748;2023-07-31T05:19:17;5.03;;;2.00;;
72557;SDS011;60583;50.094;8.748;2023-07-31T05:21:42;4.78;;;1.83;;
72557;SDS011;60583;50.094;8.748;2023-07-31T05:24:07;7.15;;;2.00;;
72557;SDS011;60583;50.094;8.748;2023-07-31T05:26:33;6.50;;;2.13;;
72557;SDS011;60583;50.094;8.748;2023-07-31T05:28:58;7.15;;;2.25;;
72557;SDS011;60583;50.094;8.748;2023-07-31T05:31:24;6.60;;;2.20;;
72557;SDS011;60583;50.094;8.748;2023-07-31T05:33:49;6.53;;;2.25;;
72557;SDS011;60583;50.094;8.748;2023-07-31T05:36:15;7.05;;;2.47;;
72557;SDS011;60583;50.094;8.748;2023-07-31T05:38:41;6.97;;;2.38;;
72557;SDS011;60583;50.094;8.748;2023-07-31T05:41:08;6.65;;;2.47;;
72557;SDS011;60583;50.094;8.748;2023-07-31T05:43:34;6.65;;;2.30;;
72557;SDS011;60583;50.094;8.748;2023-07-31T05:45:59;7.13;;;3.08;;
72557;SDS011;60583;50.094;8.748;2023-07-31T05:48:25;5.78;;;2.00;;
72557;SDS011;60583;50.094;8.748;2023-07-31T05:50:50;5.03;;;2.20;;
72557;SDS011;60583;50.094;8.748;2023-07-31T05:53:15;6.05;;;2.10;;
72557;SDS011;60583;50.094;8.748;2023-07-31T05:55:41;6.55;;;2.38;;
72557;SDS011;60583;50.094;8.748;2023-07-31T05:58:06;7.30;;;2.20;;
72557;SDS011;60583;50.094;8.748;2023-07-31T06:00:31;5.35;;;2.17;;
72557;SDS011;60583;50.094;8.748;2023-07-31T06:02:57;5.95;;;2.30;;
72557;SDS011;60583;50.094;8.748;2023-07-31T06:05:22;5.78;;;2.28;;
72557;SDS011;60583;50.094;8.748;2023-07-31T06:07:48;5.68;;;2.13;;
72557;SDS011;60583;50.094;8.748;2023-07-31T06:10:13;11.90;;;2.53;;
72557;SDS011;60583;50.094;8.748;2023-07-31T06:12:39;6.80;;;2.28;;
72557;SDS011;60583;50.094;8.748;2023-07-31T06:15:04;6.05;;;2.20;;
72557;SDS011;60583;50.094;8.748;2023-07-31T06:17:30;7.72;;;2.28;;
72557;SDS011;60583;50.094;8.748;2023-07-31T06:19:56;6.30;;;2.40;;
72557;SDS011;60583;50.094;8.748;2023-07-31T06:22:21;7.07;;;2.55;;
72557;SDS011;60583;50.094;8.748;2023-07-31T06:24:47;7.30;;;2.20;;
72557;SDS011;60583;50.094;8.748;2023-07-31T06:27:12;6.57;;;2.60;;
72557;SDS011;60583;50.094;8.748;2023-07-31T06:29:38;3.88;;;1.70;;
72557;SDS011;60583;50.094;8.748;2023-07-31T06:32:03;5.43;;;2.35;;
72557;SDS011;60583;50.094;8.748;2023-07-31T06:34:29;7.25;;;2.40;;
72557;SDS011;60583;50.094;8.748;2023-07-31T06:36:55;5.82;;;2.20;;
72557;SDS011;60583;50.094;8.748;2023-07-31T06:39:24;5.63;;;2.22;;
72557;SDS011;60583;50.094;8.748;2023-07-31T06:41:49;5.07;;;2.13;;
72557;SDS011;60583;50.094;8.748;2023-07-31T06:44:14;6.35;;;2.25;;
72557;SDS011;60583;50.094;8.748;2023-07-31T06:46:40;4.50;;;1.77;;
72557;SDS011;60583;50.094;8.748;2023-07-31T06:49:05;6.47;;;2.10;;
72557;SDS011;60583;50.094;8.748;2023-07-31T06:51:30;6.32;;;2.10;;
72557;SDS011;60583;50.094;8.748;2023-07-31T06:53:57;5.95;;;2.25;;
72557;SDS011;60583;50.094;8.748;2023-07-31T06:56:22;6.88;;;2.55;;
72557;SDS011;60583;50.094;8.748;2023-07-31T06:58:48;7.72;;;2.53;;
72557;SDS011;60583;50.094;8.748;2023-07-31T07:01:13;7.40;;;3.13;;
72557;SDS011;60583;50.094;8.748;2023-07-31T07:03:39;7.95;;;4.05;;
72557;SDS011;60583;50.094;8.748;2023-07-31T07:06:04;8.52;;;2.38;;
72557;SDS011;60583;50.094;8.748;2023-07-31T07:08:30;9.68;;;3.05;;
72557;SDS011;60583;50.094;8.748;2023-07-31T07:10:55;6.38;;;2.30;;
72557;SDS011;60583;50.094;8.748;2023-07-31T07:13:21;7.28;;;2.22;;
72557;SDS011;60583;50.094;8.748;2023-07-31T07:15:50;6.13;;;2.00;;
72557;SDS011;60583;50.094;8.748;2023-07-31T07:18:16;8.23;;;2.30;;
72557;SDS011;60583;50.094;8.748;2023-07-31T07:20:49;6.43;;;2.10;;
72557;SDS011;60583;50.094;8.748;2023-07-31T07:23:16;6.72;;;2.17;;
72557;SDS011;60583;50.094;8.748;2023-07-31T07:25:42;5.82;;;2.22;;
72557;SDS011;60583;50.094;8.748;2023-07-31T07:28:08;5.63;;;2.10;;
72557;SDS011;60583;50.094;8.748;2023-07-31T07:30:33;6.45;;;2.45;;
72557;SDS011;60583;50.094;8.748;2023-07-31T07:32:59;6.88;;;2.17;;
72557;SDS011;60583;50.094;8.748;2023-07-31T07:35:24;7.35;;;2.50;;
72557;SDS011;60583;50.094;8.748;2023-07-31T07:37:49;7.43;;;2.33;;
72557;SDS011;60583;50.094;8.748;2023-07-31T07:40:15;8.93;;;2.40;;
72557;SDS011;60583;50.094;8.748;2023-07-31T07:42:41;7.05;;;2.20;;
72557;SDS011;60583;50.094;8.748;2023-07-31T07:45:06;4.88;;;2.13;;
72557;SDS011;60583;50.094;8.748;2023-07-31T07:47:32;6.57;;;2.13;;
72557;SDS011;60583;50.094;8.748;2023-07-31T07:49:57;5.68;;;2.28;;
72557;SDS011;60583;50.094;8.748;2023-07-31T07:52:23;6.40;;;2.53;;
72557;SDS011;60583;50.094;8.748;2023-07-31T07:54:48;6.68;;;2.17;;
72557;SDS011;60583;50.094;8.748;2023-07-31T07:57:14;7.25;;;2.40;;
72557;SDS011;60583;50.094;8.748;2023-07-31T07:59:40;5.60;;;2.03;;
72557;SDS011;60583;50.094;8.748;2023-07-31T08:02:05;7.00;;;2.25;;
72557;SDS011;60583;50.094;8.748;2023-07-31T08:04:31;7.18;;;2.42;;
72557;SDS011;60583;50.094;8.748;2023-07-31T08:06:56;5.78;;;2.20;;
72557;SDS011;60583;50.094;8.748;2023-07-31T08:09:22;6.20;;;2.90;;
72557;SDS011;60583;50.094;8.748;2023-07-31T08:11:47;6.75;;;2.08;;
72557;SDS011;60583;50.094;8.748;2023-07-31T08:14:13;6.53;;;2.33;;
72557;SDS011;60583;50.094;8.748;2023-07-31T08:16:38;7.05;;;2.80;;
72557;SDS011;60583;50.094;8.748;2023-07-31T08:19:04;6.40;;;2.05;;
72557;SDS011;60583;50.094;8.748;2023-07-31T08:21:29;6.32;;;2.45;;
72557;SDS011;60583;50.094;8.748;2023-07-31T08:23:55;5.30;;;2.03;;
72557;SDS011;60583;50.094;8.748;2023-07-31T08:26:20;6.63;;;2.28;;
72557;SDS011;60583;50.094;8.748;2023-07-31T08:28:46;5.40;;;2.03;;
72557;SDS011;60583;50.094;8.748;2023-07-31T08:31:11;7.75;;;2.20;;
72557;SDS011;60583;50.094;8.748;2023-07-31T08:33:37;6.07;;;1.95;;
72557;SDS011;60583;50.094;8.748;2023-07-31T08:36:03;7.57;;;2.15;;
72557;SDS011;60583;50.094;8.748;2023-07-31T08:38:29;5.22;;;2.05;;
72557;SDS011;60583;50.094;8.748;2023-07-31T08:40:58;6.32;;;2.47;;
72557;SDS011;60583;50.094;8.748;2023-07-31T08:43:26;6.15;;;2.08;;
72557;SDS011;60583;50.094;8.748;2023-07-31T08:45:52;4.82;;;2.10;;
72557;SDS011;60583;50.094;8.748;2023-07-31T08:48:19;7.00;;;2.33;;
72557;SDS011;60583;50.094;8.748;2023-07-31T08:50:46;7.00;;;2.33;;
72557;SDS011;60583;50.094;8.748;2023-07-31T08:53:11;7.20;;;2.60;;
72557;SDS011;60583;50.094;8.748;2023-07-31T08:55:37;5.65;;;2.15;;
72557;SDS011;60583;50.094;8.748;2023-07-31T08:58:03;5.40;;;2.03;;
72557;SDS011;60583;50.094;8.748;2023-07-31T09:00:30;4.82;;;2.00;;
72557;SDS011;60583;50.094;8.748;2023-07-31T09:02:59;6.50;;;2.33;;
72557;SDS011;60583;50.094;8.748;2023-07-31T09:05:28;6.32;;;2.10;;
72557;SDS011;60583;50.094;8.748;2023-07-31T09:07:55;5.07;;;2.05;;
72557;SDS011;60583;50.094;8.748;2023-07-31T09:10:21;6.43;;;2.30;;
72557;SDS011;60583;50.094;8.748;2023-07-31T09:12:46;5.85;;;2.40;;
72557;SDS011;60583;50.094;8.748;2023-07-31T09:15:13;6.30;;;2.58;;
72557;SDS011;60583;50.094;8.748;2023-07-31T09:17:39;4.60;;;2.00;;
72557;SDS011;60583;50.094;8.748;2023-07-31T09:20:18;6.25;;;2.22;;
72557;SDS011;60583;50.094;8.748;2023-07-31T09:22:45;5.85;;;2.42;;
72557;SDS011;60583;50.094;8.748;2023-07-31T09:27:57;6.05;;;2.25;;
72557;SDS011;60583;50.094;8.748;2023-07-31T09:30:24;5.93;;;2.20;;
72557;SDS011;60583;50.094;8.748;2023-07-31T09:32:50;7.57;;;2.20;;
72557;SDS011;60583;50.094;8.748;2023-07-31T09:37:47;4.63;;;2.10;;
72557;SDS011;60583;50.094;8.748;2023-07-31T09:40:27;5.88;;;2.20;;
72557;SDS011;60583;50.094;8.748;2023-07-31T09:43:01;6.40;;;2.55;;
72557;SDS011;60583;50.094;8.748;2023-07-31T09:45:29;7.22;;;2.42;;
72557;SDS011;60583;50.094;8.748;2023-07-31T09:47:55;6.75;;;2.70;;
72557;SDS011;60583;50.094;8.748;2023-07-31T09:50:22;5.80;;;2.38;;
72557;SDS011;60583;50.094;8.748;2023-07-31T09:52:49;5.82;;;2.40;;
72557;SDS011;60583;50.094;8.748;2023-07-31T09:55:15;5.57;;;2.30;;
72557;SDS011;60583;50.094;8.748;2023-07-31T09:57:44;5.70;;;2.38;;
72557;SDS011;60583;50.094;8.748;2023-07-31T10:00:12;6.57;;;2.47;;
72557;SDS011;60583;50.094;8.748;2023-07-31T10:02:39;5.82;;;2.33;;
72557;SDS011;60583;50.094;8.748;2023-07-31T10:05:05;5.63;;;2.25;;
72557;SDS011;60583;50.094;8.748;2023-07-31T10:07:32;5.50;;;2.03;;
72557;SDS011;60583;50.094;8.748;2023-07-31T10:10:05;6.30;;;2.70;;
72557;SDS011;60583;50.094;8.748;2023-07-31T10:12:33;6.40;;;2.28;;
72557;SDS011;60583;50.094;8.748;2023-07-31T10:14:59;6.55;;;2.25;;
72557;SDS011;60583;50.094;8.748;2023-07-31T10:17:25;6.45;;;2.20;;
72557;SDS011;60583;50.094;8.748;2023-07-31T10:19:52;6.32;;;2.35;;
72557;SDS011;60583;50.094;8.748;2023-07-31T10:22:19;6.32;;;2.63;;
72557;SDS011;60583;50.094;8.748;2023-07-31T10:24:46;6.60;;;2.47;;
72557;SDS011;60583;50.094;8.748;2023-07-31T10:27:13;6.22;;;2.38;;
72557;SDS011;60583;50.094;8.748;2023-07-31T10:29:39;7.68;;;2.50;;
72557;SDS011;60583;50.094;8.748;2023-07-31T10:32:06;5.35;;;2.10;;
72557;SDS011;60583;50.094;8.748;2023-07-31T10:34:35;4.82;;;2.00;;
72557;SDS011;60583;50.094;8.748;2023-07-31T10:38:03;7.55;;;2.30;;
72557;SDS011;60583;50.094;8.748;2023-07-31T10:42:33;5.63;;;2.33;;
72557;SDS011;60583;50.094;8.748;2023-07-31T10:45:04;5.32;;;2.40;;
72557;SDS011;60583;50.094;8.748;2023-07-31T10:48:05;8.70;;;2.72;;
72557;SDS011;60583;50.094;8.748;2023-07-31T10:50:27;8.23;;;3.47;;
72557;SDS011;60583;50.094;8.748;2023-07-31T10:52:55;8.23;;;2.60;;
72557;SDS011;60583;50.094;8.748;2023-07-31T10:55:29;6.28;;;2.50;;
72557;SDS011;60583;50.094;8.748;2023-07-31T10:58:06;7.57;;;2.33;;
72557;SDS011;60583;50.094;8.748;2023-07-31T11:00:33;7.53;;;2.67;;
72557;SDS011;60583;50.094;8.748;2023-07-31T11:03:09;7.68;;;2.60;;
72557;SDS011;60583;50.094;8.748;2023-07-31T11:10:48;8.93;;;2.78;;
72557;SDS011;60583;50.094;8.748;2023-07-31T11:13:41;5.65;;;2.40;;
72557;SDS011;60583;50.094;8.748;2023-07-31T11:16:26;5.30;;;2.40;;
72557;SDS011;60583;50.094;8.748;2023-07-31T11:18:52;7.38;;;2.60;;
72557;SDS011;60583;50.094;8.748;2023-07-31T11:21:19;6.53;;;2.47;;
72557;SDS011;60583;50.094;8.748;2023-07-31T11:23:50;7.20;;;2.50;;
72557;SDS011;60583;50.094;8.748;2023-07-31T11:26:17;6.35;;;2.50;;
72557;SDS011;60583;50.094;8.748;2023-07-31T11:28:46;8.10;;;2.65;;
72557;SDS011;60583;50.094;8.748;2023-07-31T11:31:12;6.88;;;2.90;;
72557;SDS011;60583;50.094;8.748;2023-07-31T11:33:37;6.63;;;2.63;;
72557;SDS011;60583;50.094;8.748;2023-07-31T11:36:03;5.47;;;2.22;;
72557;SDS011;60583;50.094;8.748;2023-07-31T11:38:30;5.93;;;2.28;;
72557;SDS011;60583;50.094;8.748;2023-07-31T11:40:57;6.55;;;2.35;;
72557;SDS011;60583;50.094;8.748;2023-07-31T11:43:24;5.93;;;2.83;;
72557;SDS011;60583;50.094;8.748;2023-07-31T11:45:54;6.40;;;2.25;;
72557;SDS011;60583;50.094;8.748;2023-07-31T11:48:31;5.72;;;2.33;;
72557;SDS011;60583;50.094;8.748;2023-07-31T11:50:59;6.13;;;2.40;;
72557;SDS011;60583;50.094;8.748;2023-07-31T11:53:44;6.65;;;2.60;;
72557;SDS011;60583;50.094;8.748;2023-07-31T11:56:21;6.30;;;2.28;;
72557;SDS011;60583;50.094;8.748;2023-07-31T11:58:55;7.43;;;2.33;;
72557;SDS011;60583;50.094;8.748;2023-07-31T12:01:23;6.20;;;2.45;;
72557;SDS011;60583;50.094;8.748;2023-07-31T12:03:58;6.68;;;2.60;;
72557;SDS011;60583;50.094;8.748;2023-07-31T12:06:36;6.13;;;2.47;;
72557;SDS011;60583;50.094;8.748;2023-07-31T12:09:03;6.55;;;2.40;;
72557;SDS011;60583;50.094;8.748;2023-07-31T12:11:29;7.65;;;2.70;;
72557;SDS011;60583;50.094;8.748;2023-07-31T12:13:54;8.05;;;2.60;;
72557;SDS011;60583;50.094;8.748;2023-07-31T12:16:19;7.78;;;2.95;;
72557;SDS011;60583;50.094;8.748;2023-07-31T12:18:45;5.45;;;2.20;;
72557;SDS011;60583;50.094;8.748;2023-07-31T12:21:14;5.30;;;2.20;;
72557;SDS011;60583;50.094;8.748;2023-07-31T12:23:40;6.07;;;2.58;;
72557;SDS011;60583;50.094;8.748;2023-07-31T12:26:11;7.43;;;2.47;;
72557;SDS011;60583;50.094;8.748;2023-07-31T12:28:47;5.57;;;2.50;;
72557;SDS011;60583;50.094;8.748;2023-07-31T12:31:20;5.95;;;2.60;;
72557;SDS011;60583;50.094;8.748;2023-07-31T12:33:47;5.90;;;2.30;;
72557;SDS011;60583;50.094;8.748;2023-07-31T12:36:18;7.00;;;3.00;;
72557;SDS011;60583;50.094;8.748;2023-07-31T12:38:46;6.18;;;2.97;;
72557;SDS011;60583;50.094;8.748;2023-07-31T12:41:11;6.32;;;2.45;;
72557;SDS011;60583;50.094;8.748;2023-07-31T12:43:38;5.63;;;2.25;;
72557;SDS011;60583;50.094;8.748;2023-07-31T12:46:05;6.70;;;2.35;;
72557;SDS011;60583;50.094;8.748;2023-07-31T12:48:33;5.63;;;2.47;;
72557;SDS011;60583;50.094;8.748;2023-07-31T12:50:59;6.50;;;2.65;;
72557;SDS011;60583;50.094;8.748;2023-07-31T12:53:27;6.00;;;2.55;;
72557;SDS011;60583;50.094;8.748;2023-07-31T12:55:52;6.95;;;2.70;;
72557;SDS011;60583;50.094;8.748;2023-07-31T12:58:18;6.28;;;2.47;;
72557;SDS011;60583;50.094;8.748;2023-07-31T13:00:43;5.65;;;2.33;;
72557;SDS011;60583;50.094;8.748;2023-07-31T13:03:09;5.65;;;2.58;;
72557;SDS011;60583;50.094;8.748;2023-07-31T13:05:34;6.15;;;2.58;;
72557;SDS011;60583;50.094;8.748;2023-07-31T13:08:00;6.97;;;2.50;;
72557;SDS011;60583;50.094;8.748;2023-07-31T13:10:25;6.30;;;2.67;;
72557;SDS011;60583;50.094;8.748;2023-07-31T13:12:52;5.40;;;2.35;;
72557;SDS011;60583;50.094;8.748;2023-07-31T13:15:18;7.68;;;2.35;;
72557;SDS011;60583;50.094;8.748;2023-07-31T13:17:43;8.95;;;2.60;;
72557;SDS011;60583;50.094;8.748;2023-07-31T13:20:08;5.45;;;2.28;;
72557;SDS011;60583;50.094;8.748;2023-07-31T13:22:35;7.43;;;2.40;;
72557;SDS011;60583;50.094;8.748;2023-07-31T13:25:00;6.32;;;2.58;;
72557;SDS011;60583;50.094;8.748;2023-07-31T13:27:26;7.32;;;2.40;;
72557;SDS011;60583;50.094;8.748;2023-07-31T13:29:51;7.05;;;2.53;;
72557;SDS011;60583;50.094;8.748;2023-07-31T13:32:17;7.07;;;2.88;;
72557;SDS011;60583;50.094;8.748;2023-07-31T13:34:44;6.32;;;2.53;;
72557;SDS011;60583;50.094;8.748;2023-07-31T13:37:10;5.82;;;2.65;;
72557;SDS011;60583;50.094;8.748;2023-07-31T13:39:35;7.28;;;2.85;;
72557;SDS011;60583;50.094;8.748;2023-07-31T13:42:04;6.65;;;2.70;;
72557;SDS011;60583;50.094;8.748;2023-07-31T13:44:34;6.32;;;2.53;;
72557;SDS011;60583;50.094;8.748;2023-07-31T13:47:00;7.60;;;2.83;;
72557;SDS011;60583;50.094;8.748;2023-07-31T13:49:26;5.32;;;2.50;;
72557;SDS011;60583;50.094;8.748;2023-07-31T13:51:51;6.95;;;2.78;;
72557;SDS011;60583;50.094;8.748;2023-07-31T13:54:17;6.43;;;2.70;;
72557;SDS011;60583;50.094;8.748;2023-07-31T13:56:42;6.90;;;2.85;;
72557;SDS011;60583;50.094;8.748;2023-07-31T13:59:08;6.78;;;2.85;;
72557;SDS011;60583;50.094;8.748;2023-07-31T14:01:33;6.57;;;3.17;;
72557;SDS011;60583;50.094;8.748;2023-07-31T14:03:59;6.35;;;2.47;;
72557;SDS011;60583;50.094;8.748;2023-07-31T14:06:24;5.28;;;2.22;;
72557;SDS011;60583;50.094;8.748;2023-07-31T14:08:50;8.90;;;2.95;;
72557;SDS011;60583;50.094;8.748;2023-07-31T14:11:15;5.35;;;2.40;;
72557;SDS011;60583;50.094;8.748;2023-07-31T14:13:40;5.47;;;2.33;;
72557;SDS011;60583;50.094;8.748;2023-07-31T14:16:06;5.97;;;2.47;;
72557;SDS011;60583;50.094;8.748;2023-07-31T14:18:31;4.63;;;2.40;;
72557;SDS011;60583;50.094;8.748;2023-07-31T14:20:57;6.45;;;3.10;;
72557;SDS011;60583;50.094;8.748;2023-07-31T14:23:22;4.38;;;2.33;;
72557;SDS011;60583;50.094;8.748;2023-07-31T14:25:48;5.72;;;2.35;;
72557;SDS011;60583;50.094;8.748;2023-07-31T14:28:13;4.70;;;2.15;;
72557;SDS011;60583;50.094;8.748;2023-07-31T14:30:38;5.60;;;2.60;;
72557;SDS011;60583;50.094;8.748;2023-07-31T14:33:04;5.28;;;2.33;;
72557;SDS011;60583;50.094;8.748;2023-07-31T14:35:29;5.03;;;2.35;;
72557;SDS011;60583;50.094;8.748;2023-07-31T14:37:55;5.80;;;2.58;;
72557;SDS011;60583;50.094;8.748;2023-07-31T14:40:20;7.28;;;2.78;;
72557;SDS011;60583;50.094;8.748;2023-07-31T14:42:46;6.65;;;2.95;;
72557;SDS011;60583;50.094;8.748;2023-07-31T14:45:11;5.63;;;2.30;;
72557;SDS011;60583;50.094;8.748;2023-07-31T14:47:37;9.15;;;2.72;;
72557;SDS011;60583;50.094;8.748;2023-07-31T14:50:03;6.38;;;2.50;;
72557;SDS011;60583;50.094;8.748;2023-07-31T14:52:29;5.20;;;2.50;;
72557;SDS011;60583;50.094;8.748;2023-07-31T14:54:54;7.07;;;2.53;;
72557;SDS011;60583;50.094;8.748;2023-07-31T14:57:20;5.90;;;2.60;;
72557;SDS011;60583;50.094;8.748;2023-07-31T14:59:45;7.93;;;3.40;;
72557;SDS011;60583;50.094;8.748;2023-07-31T15:02:11;5.85;;;3.00;;
72557;SDS011;60583;50.094;8.748;2023-07-31T15:04:37;6.32;;;2.92;;